Weather at Salt Lake City International Airport

Public forecast

Using degrees Fahrenheit for public forecast. Weather courtesy of forecast.io.

Current aviation weather report (METAR) for Salt Lake City International Airport

Retrieved 2021/01/28 06:54 UTC (45 minutes ago):

KSLC 280654Z 16021G30KT 10SM FEW065 SCT095 BKN110 02/M04 A3003 RMK AO2 PK WND 17030/0646 SLP178 T00221044 400281022

Aviation forecast (TAF) for Salt Lake City International Airport

Retrieved 2021/01/28 06:34 UTC (1 hour ago):

TAF KSLC 280532Z 2806/2912 16010G18KT P6SM VCSH SCT030 BKN070 FM281900 16013G24KT P6SM SCT060 BKN120 FM290000 16010KT P6SM SCT080 BKN150